Mason Valley Wildlife Refuge, Nevada Weather observations

Data are for 10 minute period ending at time listed.
 Day   Time   Solar   Ave.   Ave.  Ave.  Vector  Max.   Baro.   Total    
  of    of     Rad.   Air    Rel.  Wind   Wind   Wind  Press.  Precip.   
Year   Day            Temp.  Hum.  Speed  Dir.   Gust                    
2015   (PST)  Kw/m2    F      %     mph   deg.    mph    mb.     in.     
-------------------------------------------------------------------------
 107    4:50   0.00   27.6    64    0.4   119     1.1   872.4    0.00 
 107    5:00   0.00   27.0    58    0.0   119     0.8   872.4    0.00 
 107    5:10   0.00   25.7    56    1.3   315     2.9   872.6    0.00 
 107    5:20   0.01   26.4    50    1.9   334     2.6   872.6    0.00 
 107    5:30   0.01   25.4    51    2.4    13     3.4   872.8    0.00 
 107    5:40   0.03   26.9    48    1.4   346     2.9   872.8    0.00 
 107    5:50   0.05   25.5    50    0.2   169     1.4   872.8    0.00 
 107    6:00   0.07   27.1    47    0.9   146     2.8   872.9    0.00 
 107    6:10   0.09   27.8    49    1.2   157     2.0   872.9    0.00 
 107    6:20   0.04   33.2    44    0.3   118     1.2   872.9    0.00 
 107    6:30   0.10   36.9    38    1.0   230     3.3   872.9    0.00 
 107    6:40   0.13   38.6    37    2.0   262     3.4   872.9    0.00 
 107    6:50   0.18   40.0    32    1.9   283     2.9   872.9    0.00 
 107    7:00   0.19   40.8    32    2.2   252     3.9   872.9    0.00 
 107    7:10   0.28   41.6    35    2.5   246     4.2   873.1    0.00 
 107    7:20   0.29   43.7    31    2.1   246     3.6   873.2    0.00 
 107    7:30   0.24   45.6    28    2.4   216     6.6   873.3    0.00 
 107    7:40   0.23   46.8    22    4.4   215     6.6   873.3    0.00 
 107    7:50   0.37   48.2    21    3.5   211     6.6   873.5    0.00 
 107    8:00   0.46   49.5    21    3.2   232     6.3   873.5    0.00 
 107    8:10   0.49   50.6    21    3.4   252     6.2   873.6    0.00 
 107    8:20   0.52   52.2    20    3.2   255     6.5   873.6    0.00 
 107    8:30   0.56   53.2    19    3.1   268     5.3   873.7    0.00 
 107    8:40   0.59   53.4    19    1.8   238     4.4   873.7    0.00 
 107    8:50   0.62   53.9    18    2.2   198     5.5   873.7    0.00 
 107    9:00   0.65   55.6    18    1.8   276     3.5   873.7    0.00 
 107    9:10   0.68   56.0    18    1.7    15     3.8   873.6    0.00 
 107    9:20   0.71   56.5    17    3.0   286     6.6   873.7    0.00 
 107    9:30   0.74   57.3    16    2.6   197     5.1   873.7    0.00 
 107    9:40   0.76   57.6    16    3.4   220     7.1   873.6    0.00 
 107    9:50   0.79   57.8    15    2.9   140     5.3   873.6    0.00 
 107   10:00   0.81   59.1    16    3.8   300     7.4   873.5    0.00 
 107   10:10   0.83   60.2    15    3.2   263     5.7   873.5    0.00 
 107   10:20   0.85   61.3    14    2.0     9     5.1   873.4    0.00 
 107   10:30   0.87   61.9    14    3.4    93     8.4   873.3    0.00 
 107   10:40   0.89   61.7    14    3.7    70     8.0   873.2    0.00 
 107   10:50   0.91   62.1    14    4.7   325     8.0   873.0    0.00 
 107   11:00   0.92   61.7    13    6.3   323    10.6   873.0    0.00 
 107   11:10   0.94   61.6    13    3.7    32     9.2   872.9    0.00 
 107   11:20   0.95   62.6    13    4.2   277     8.7   872.7    0.00 
 107   11:30   0.96   62.6    13    3.3     7    10.5   872.5    0.00 
 107   11:40   0.97   63.5    12    6.3    30    11.4   872.3    0.00 
 107   11:50   0.97   63.2    12    5.0    14    10.6   872.2    0.00 
 107   12:00   0.98   64.1    12    4.9    12    14.5   872.1    0.00 
 107   12:10   0.98   64.1    12    6.1   343    11.9   872.0    0.00 
 107   12:20   0.98   64.3    12    7.0     4    14.0   871.9    0.00 
 107   12:30   0.98   64.7    12    4.8     6    11.0   871.7    0.00 
 107   12:40   0.98   65.2    12    5.6    21    12.7   871.6    0.00 
 107   12:50   0.97   65.8    11    5.0    68     9.7   871.5    0.00 
 107   13:00   0.97   66.0    12    5.9     9    11.5   871.3    0.00 
 107   13:10   0.96   66.1    11    3.0   341     6.9   871.1    0.00 
 107   13:20   0.95   66.4    12    6.4     8    14.2   871.0    0.00 
 107   13:30   0.94   66.7    11    5.2    35    10.7   870.8    0.00 
 107   13:40   0.92   67.4    11    3.9     1    10.2   870.6    0.00 
 107   13:50   0.91   67.1    11    5.0   325     9.9   870.5    0.00 
 107   14:00   0.89   68.0    11    5.1    66    11.8   870.4    0.00 
 107   14:10   0.87   68.5    11    6.0    65    11.5   870.2    0.00 
 107   14:20   0.85   68.8    10    4.9    73    10.2   870.0    0.00 
 107   14:30   0.82   68.3    10    5.4    57    10.1   869.9    0.00 
 107   14:40   0.80   68.2    10    6.3    55    14.0   869.8    0.00 
 107   14:50   0.77   68.8    10    2.5    10     8.6   869.6    0.00 
 107   15:00   0.75   69.2    10    7.0     5    12.9   869.5    0.00 
 107   15:10   0.72   69.1    10    2.6    25     8.0   869.4    0.00 
 107   15:20   0.69   69.2    10    3.7   340    10.6   869.3    0.00 
 107   15:30   0.66   69.1    10    7.5    28    13.7   869.2    0.00 
 107   15:40   0.62   69.1    10    6.8    22    16.7   869.2    0.00 
 107   15:50   0.59   68.9     9    7.0    18    13.9   869.1    0.00 
 107   16:00   0.56   69.0     9    6.3    57    15.3   869.0    0.00 
 107   16:10   0.52   69.3    10    8.5    55    15.5   869.0    0.00 
 107   16:20   0.48   69.0    10    8.9    36    16.1   868.9    0.00 
 107   16:30   0.45   68.9    10    7.5    45    12.2   868.8    0.00 
 107   16:40   0.41   68.8    10    9.7    51    14.5   868.9    0.00 
 107   16:50   0.38   68.5     9    9.5    38    14.1   868.9    0.00 
 107   17:00   0.34   68.6    10    8.1    47    13.7   868.9    0.00 
 107   17:10   0.30   68.4    10    8.9    49    14.9   868.9    0.00 
 107   17:20   0.26   68.1    10    8.6    51    12.7   868.8    0.00 
 107   17:30   0.22   67.9    11    6.7    55    11.2   868.8    0.00 
 107   17:40   0.11   67.6    11    7.8    56    11.1   868.9    0.00 
 107   17:50   0.05   67.0    11    6.5    52     9.8   868.9    0.00 
 107   18:00   0.08   66.4    12    6.1    55     9.3   869.0    0.00 
 107   18:10   0.08   65.4    12    5.4    58     7.1   869.0    0.00 
 107   18:20   0.01   64.8    12    3.6    64     5.1   869.0    0.00 
 107   18:30   0.00   63.5    12    3.4    68     4.5   869.1    0.00 
 107   18:40   0.01   62.0    12    2.9    98     4.5   869.1    0.00 
 107   18:50   0.00   60.8    12    3.1    91     5.6   869.2    0.00 
 107   19:00   0.00   59.3    13    1.6    96     2.6   869.3    0.00 
 107   19:10   0.00   57.2    14    1.0    92     1.7   869.4    0.00 
 107   19:20   0.00   55.6    15    0.4    84     1.3   869.5    0.00 
 107   19:30   0.00   54.3    16    1.2   151     1.9   869.6    0.00 
 107   19:40   0.00   53.4    17    0.6   158     1.3   869.7    0.00 
 107   19:50   0.00   52.2    18    0.0     0     0.0   869.8    0.00 
 107   20:00   0.00   52.7    19    0.1     2     2.7   870.0    0.00 
 107   20:10   0.00   51.3    20    0.2   348     1.7   870.0    0.00 
 107   20:20   0.00   51.8    21    2.7   260     5.7   870.1    0.00 
 107   20:30   0.00   51.4    25    3.9   260     5.3   870.2    0.00 
 107   20:40   0.00   49.2    32    3.4   248     4.4   870.2    0.00 
 107   20:50   0.00   46.1    32    3.7   245     4.5   870.4    0.00 
 107   21:00   0.00   45.2    32    4.8   239     5.6   870.3    0.00 
 107   21:10   0.00   48.0    28    4.2   234     5.6   870.3    0.00 
 107   21:20   0.00   47.0    30    3.1   248     4.7   870.3    0.00 
 107   21:30   0.00   43.9    33    2.9   258     3.6   870.2    0.00 
 107   21:40   0.00   43.5    32    3.9   244     5.1   870.1    0.00 
 107   21:50   0.00   42.0    34    1.0   182     3.4   870.1    0.00 
 107   22:00   0.00   42.0    30    1.8    76     3.3   870.1    0.00 
 107   22:10   0.00   38.2    31    3.4    60     4.9   870.2    0.00 
 107   22:20   0.00   39.8    33    2.5    85     3.7   870.1    0.00 
 107   22:30   0.00   38.7    33    2.0    90     3.1   870.1    0.00 
 107   22:40   0.00   37.8    35    1.9   150     3.2   870.1    0.00 
 107   22:50   0.00   38.0    34    1.4   162     1.8   870.0    0.00 
 107   23:00   0.00   37.1    34    0.2   136     1.6   870.0    0.00 
 107   23:10   0.00   36.7    36    1.1   136     1.8   870.0    0.00 
 107   23:20   0.00   40.2    32    1.8   136     2.5   870.0    0.00 
 107   23:30   0.00   39.3    32    1.7   133     2.6   870.1    0.00 
 107   23:40   0.00   40.3    30    2.3   180     2.8   870.2    0.00 
 107   23:50   0.00   41.6    26    3.3   183     3.8   870.1    0.00 
 108    0:00   0.00   39.7    33    4.3   221     6.2   870.0    0.00 
 108    0:10   0.00   35.2    46    1.2   320     2.3   870.0    0.00 
 108    0:20   0.00   34.4    41    1.9   320     2.9   870.0    0.00 
 108    0:30   0.00   34.9    43    3.1   294     3.7   869.9    0.00 
 108    0:40   0.00   36.0    46    4.1   297     5.0   869.9    0.00 
 108    0:50   0.00   34.8    50    2.2   298     4.1   869.8    0.00 
 108    1:00   0.00   35.2    51    0.7   196     1.6   869.7    0.00 
 108    1:10   0.00   33.3    44    1.0    96     2.3   869.7    0.00 
 108    1:20   0.00   32.5    42    2.4    94     2.9   869.6    0.00 
 108    1:30   0.00   32.8    42    1.8   114     3.1   869.6    0.00 
 108    1:40   0.00   31.9    41    2.8   120     4.2   869.6    0.00 
 108    1:50   0.00   34.4    42    3.5   130     4.3   869.7    0.00 
 108    2:00   0.00   36.0    33    2.7   102     3.7   869.7    0.00 
 108    2:10   0.00   38.6    26    2.7   126     4.2   869.7    0.00 
 108    2:20   0.00   37.1    27    1.7   191     3.1   869.7    0.00 
 108    2:30   0.00   35.3    32    1.3   289     2.6   869.7    0.00 
 108    2:40   0.00   34.2    32    1.8   358     2.9   869.8    0.00 
 108    2:50   0.00   33.4    31    2.0    81     2.7   869.8    0.00 
 108    3:00   0.00   33.6    30    2.7   102     3.3   869.7    0.00 
 108    3:10   0.00   33.4    32    1.7    98     3.1   869.7    0.00 
 108    3:20   0.00   31.5    37    3.0    18     5.5   869.9    0.00 
 108    3:30   0.00   31.4    48    2.0    17     4.2   869.8    0.00 
 108    3:40   0.00   30.8    45    1.6   149     4.3   869.8    0.00 
 108    3:50   0.00   29.2    48    1.0    32     2.1   869.8    0.00 
 108    4:00   0.00   29.7    53    1.2   270     2.2   869.8    0.00 
 108    4:10   0.00   31.5    53    0.6   248     2.0   869.9    0.00 
 108    4:20   0.00   31.1    58    2.8   192     4.1   869.9    0.00 
 108    4:30   0.00   31.1    52    2.5   187     3.9   869.9    0.00 
 108    4:40   0.00   33.4    47    0.5   212     1.7   869.9    0.00 

Return to Mason Valley Wildlife Refuge graphs page.


Western Regional Climate Center,wrcc@dri.edu